createdAt,value
2018-11-02T00:01:56.446Z,84.33
2018-11-02T00:04:25.090Z,84.78
2018-11-02T00:06:53.717Z,84.33
2018-11-02T00:09:22.363Z,84.23
2018-11-02T00:11:51.001Z,84.68
2018-11-02T00:14:19.638Z,84.58
2018-11-02T00:16:48.273Z,84.71
2018-11-02T00:19:21.277Z,84.68
2018-11-02T00:21:49.910Z,84.51
2018-11-02T00:24:18.504Z,85.47
2018-11-02T00:26:47.159Z,85.56
2018-11-02T00:29:15.837Z,85.32
2018-11-02T00:31:44.499Z,85.60
2018-11-02T00:34:13.232Z,84.49
2018-11-02T00:36:41.853Z,85.50
2018-11-02T00:39:10.701Z,84.86
2018-11-02T00:41:39.499Z,85.33
2018-11-02T00:44:09.098Z,85.12
2018-11-02T00:46:37.872Z,85.70
2018-11-02T00:49:06.881Z,85.57
2018-11-02T00:51:36.393Z,85.50
2018-11-02T00:54:05.429Z,85.22
2018-11-02T00:56:34.145Z,84.89
2018-11-02T00:59:02.779Z,85.28
2018-11-02T01:01:31.461Z,85.12
2018-11-02T01:04:00.097Z,85.17
2018-11-02T01:06:29.202Z,85.52
2018-11-02T01:08:57.918Z,85.47
2018-11-02T01:11:26.612Z,85.49
2018-11-02T01:13:55.230Z,84.99
2018-11-02T01:16:23.947Z,85.68
2018-11-02T01:18:52.572Z,86.22
2018-11-02T01:21:21.213Z,86.16
2018-11-02T01:23:49.843Z,85.87
2018-11-02T01:26:18.484Z,86.72
2018-11-02T01:28:47.148Z,86.74
2018-11-02T01:31:15.793Z,86.70
2018-11-02T01:33:44.496Z,87.22
2018-11-02T01:36:13.173Z,87.20
2018-11-02T01:38:41.785Z,88.29
2018-11-02T01:41:10.473Z,88.13
2018-11-02T01:43:39.110Z,88.47
2018-11-02T01:46:07.749Z,88.15
2018-11-02T01:48:36.410Z,87.96
2018-11-02T01:51:05.087Z,88.60
2018-11-02T01:53:33.724Z,87.96
2018-11-02T01:56:02.360Z,88.22
2018-11-02T01:58:31.033Z,88.62
2018-11-02T02:00:59.694Z,88.79
2018-11-02T02:03:28.317Z,88.76
2018-11-02T02:05:57.029Z,88.75
2018-11-02T02:08:25.666Z,89.25
2018-11-02T02:10:54.362Z,88.66
2018-11-02T02:13:23.164Z,88.67
2018-11-02T02:15:51.671Z,88.99
2018-11-02T02:18:20.339Z,89.43
2018-11-02T02:20:49.007Z,88.95
2018-11-02T02:23:17.688Z,89.45
2018-11-02T02:25:46.389Z,89.63
2018-11-02T02:28:15.083Z,89.72
2018-11-02T02:30:43.726Z,89.80
2018-11-02T02:33:12.363Z,89.73
2018-11-02T02:35:41.081Z,89.65
2018-11-02T02:38:09.787Z,89.88
2018-11-02T02:40:38.454Z,90.26
2018-11-02T02:43:07.123Z,89.73
2018-11-02T02:45:35.795Z,89.88
2018-11-02T02:48:04.529Z,89.46
2018-11-02T02:50:33.188Z,89.60
2018-11-02T02:53:01.815Z,90.02
2018-11-02T02:55:30.476Z,89.90
2018-11-02T02:57:59.100Z,90.13
2018-11-02T03:00:27.848Z,90.33
2018-11-02T03:02:56.577Z,90.30
2018-11-02T03:05:25.320Z,90.53
2018-11-02T03:07:53.960Z,90.38
2018-11-02T03:10:22.710Z,91.11
2018-11-02T03:12:51.313Z,91.06
2018-11-02T03:15:19.962Z,90.73
2018-11-02T03:17:48.594Z,91.54
2018-11-02T03:20:17.341Z,91.39
2018-11-02T03:22:46.067Z,90.86
2018-11-02T03:25:14.765Z,91.35
2018-11-02T03:27:43.445Z,91.57
2018-11-02T03:30:12.652Z,91.67
2018-11-02T03:32:41.546Z,92.22
2018-11-02T03:35:10.630Z,92.55
2018-11-02T03:37:39.333Z,93.21
2018-11-02T03:40:09.443Z,93.41
2018-11-02T03:42:38.090Z,93.56
2018-11-02T03:45:07.040Z,93.56
2018-11-02T03:47:35.759Z,93.90
2018-11-02T03:50:04.646Z,93.65
2018-11-02T03:52:33.341Z,93.98
2018-11-02T03:55:02.003Z,94.23
2018-11-02T03:57:30.646Z,94.73
2018-11-02T03:59:59.457Z,94.61
2018-11-02T04:02:28.106Z,94.68
2018-11-02T04:04:56.858Z,94.36
2018-11-02T04:07:25.530Z,94.60
2018-11-02T04:09:54.244Z,94.68
2018-11-02T04:12:22.901Z,94.78
2018-11-02T04:14:51.518Z,95.31
2018-11-02T04:17:20.217Z,95.39
2018-11-02T04:19:48.888Z,95.53
2018-11-02T04:22:17.665Z,94.89
2018-11-02T04:24:46.338Z,95.23
2018-11-02T04:27:14.975Z,94.42
2018-11-02T04:29:43.667Z,94.76
2018-11-02T04:32:12.317Z,94.28
2018-11-02T04:34:41.023Z,94.23
2018-11-02T04:37:09.689Z,94.88
2018-11-02T04:39:38.390Z,94.87
2018-11-02T04:42:07.083Z,95.11
2018-11-02T04:44:35.782Z,94.62
2018-11-02T04:47:04.528Z,94.69
2018-11-02T04:49:33.223Z,94.36
2018-11-02T04:52:01.885Z,95.10
2018-11-02T04:54:30.569Z,94.94
2018-11-02T04:56:59.277Z,95.31
2018-11-02T04:59:27.988Z,95.17
2018-11-02T05:01:56.780Z,95.64
2018-11-02T05:04:25.441Z,95.11
2018-11-02T05:06:54.151Z,95.99
2018-11-02T05:09:22.944Z,95.58
2018-11-02T05:11:51.697Z,96.07
2018-11-02T05:14:20.447Z,95.79
2018-11-02T05:16:49.148Z,96.19
2018-11-02T05:19:17.783Z,96.01
2018-11-02T05:21:46.442Z,96.15
2018-11-02T05:24:15.044Z,96.34
2018-11-02T05:26:43.793Z,95.85
2018-11-02T05:29:12.449Z,95.96
2018-11-02T05:31:41.189Z,95.92
2018-11-02T05:34:09.928Z,95.91
2018-11-02T05:36:38.694Z,95.66
2018-11-02T05:39:09.936Z,95.99
2018-11-02T05:41:38.653Z,95.49
2018-11-02T05:44:07.517Z,95.86
2018-11-02T05:46:36.521Z,95.36
2018-11-02T05:49:05.453Z,95.34
2018-11-02T05:51:34.176Z,95.20
2018-11-02T05:54:02.900Z,95.17
2018-11-02T05:56:31.647Z,95.12
2018-11-02T05:59:00.286Z,95.67
2018-11-02T06:01:29.050Z,95.42
2018-11-02T06:03:57.682Z,95.51
2018-11-02T06:06:26.355Z,95.39
2018-11-02T06:08:55.039Z,95.81
2018-11-02T06:11:23.812Z,95.75
2018-11-02T06:13:52.490Z,95.72
2018-11-02T06:16:21.213Z,95.53
2018-11-02T06:18:49.968Z,95.50
2018-11-02T06:21:18.609Z,95.00
2018-11-02T06:23:47.296Z,95.05
2018-11-02T06:26:15.925Z,94.78
2018-11-02T06:28:44.565Z,95.25
2018-11-02T06:31:13.210Z,94.83
2018-11-02T06:33:42.049Z,94.84
2018-11-02T06:36:10.804Z,93.65
2018-11-02T06:38:39.558Z,94.07
2018-11-02T06:41:08.162Z,94.13
2018-11-02T06:43:36.883Z,94.12
2018-11-02T06:46:05.640Z,93.78
2018-11-02T06:48:34.354Z,93.70
2018-11-02T06:51:03.167Z,93.54
2018-11-02T06:53:31.754Z,94.24
2018-11-02T06:56:00.465Z,93.63
2018-11-02T06:58:29.132Z,92.96
2018-11-02T07:00:57.753Z,93.30
2018-11-02T07:03:26.424Z,93.14
2018-11-02T07:05:55.277Z,92.44
2018-11-02T07:08:24.054Z,91.74
2018-11-02T07:10:52.664Z,91.16
2018-11-02T07:13:21.627Z,91.08
2018-11-02T07:15:50.294Z,90.82
2018-11-02T07:18:18.945Z,90.88
2018-11-02T07:20:47.668Z,89.96
2018-11-02T07:23:16.269Z,89.00
2018-11-02T07:25:44.918Z,88.92
2018-11-02T07:28:13.619Z,88.03
2018-11-02T07:30:42.278Z,86.78
2018-11-02T07:33:10.970Z,86.32
2018-11-02T07:35:39.577Z,86.03
2018-11-02T07:38:08.476Z,83.46
2018-11-02T07:40:37.180Z,82.16
2018-11-02T07:43:05.883Z,81.21
2018-11-02T07:45:34.540Z,79.44
2018-11-02T07:48:03.226Z,79.29
2018-11-02T07:50:31.868Z,78.34
2018-11-02T07:53:00.518Z,76.10
2018-11-02T07:55:29.184Z,75.95
2018-11-02T07:57:57.862Z,73.77
2018-11-02T08:00:26.563Z,72.50
2018-11-02T08:02:55.210Z,71.61
2018-11-02T08:05:23.879Z,70.16
2018-11-02T08:07:52.602Z,70.55
2018-11-02T08:10:21.352Z,72.47
2018-11-02T08:12:49.985Z,72.06
2018-11-02T08:15:18.809Z,72.52
2018-11-02T08:17:47.593Z,72.01
2018-11-02T08:20:16.138Z,71.83
2018-11-02T08:22:44.882Z,70.44
2018-11-02T08:25:13.779Z,69.33
2018-11-02T08:27:42.654Z,67.84
2018-11-02T08:30:12.210Z,66.32
2018-11-02T08:32:41.314Z,65.71
2018-11-02T08:35:11.997Z,65.20
2018-11-02T08:37:41.070Z,64.39
2018-11-02T08:40:10.910Z,66.33
2018-11-02T08:42:39.550Z,65.56
2018-11-02T08:45:08.672Z,64.23
2018-11-02T08:47:37.386Z,64.76
2018-11-02T08:50:07.217Z,63.10
2018-11-02T08:52:35.881Z,63.86
2018-11-02T08:55:04.926Z,62.64
2018-11-02T08:57:33.667Z,62.36
2018-11-02T09:00:02.452Z,62.00
2018-11-02T09:02:31.233Z,62.53
2018-11-02T09:04:59.910Z,61.07
2018-11-02T09:07:28.573Z,60.65
2018-11-02T09:09:57.177Z,58.87
2018-11-02T09:12:25.963Z,59.93
2018-11-02T09:14:54.616Z,60.86
2018-11-02T09:17:23.385Z,61.39
2018-11-02T09:19:52.370Z,60.11
2018-11-02T09:22:21.103Z,59.86
2018-11-02T09:24:49.774Z,60.76
2018-11-02T09:27:18.455Z,59.72
2018-11-02T09:29:47.066Z,59.37
2018-11-02T09:32:15.719Z,58.06
2018-11-02T09:34:44.364Z,59.20
2018-11-02T09:37:13.034Z,58.47
2018-11-02T09:39:41.686Z,58.98
2018-11-02T09:42:10.337Z,60.54
2018-11-02T09:44:39.041Z,59.19
2018-11-02T09:47:07.726Z,58.01
2018-11-02T09:49:36.431Z,56.20
2018-11-02T09:52:05.254Z,55.73
2018-11-02T09:54:33.862Z,56.59
2018-11-02T09:57:02.581Z,57.79
2018-11-02T09:59:31.322Z,56.73
2018-11-02T10:01:59.995Z,55.92
2018-11-02T10:04:28.677Z,54.64
2018-11-02T10:06:57.333Z,54.78
2018-11-02T10:09:26.156Z,55.23
2018-11-02T10:11:54.814Z,54.46
2018-11-02T10:14:23.710Z,55.19
2018-11-02T10:16:52.429Z,56.11
2018-11-02T10:19:21.825Z,55.89
2018-11-02T10:21:50.803Z,58.06
2018-11-02T10:24:19.479Z,56.11
2018-11-02T10:26:48.688Z,54.67
2018-11-02T10:29:17.553Z,54.53
2018-11-02T10:31:46.414Z,53.58
2018-11-02T10:34:15.110Z,53.68
2018-11-02T10:36:45.125Z,53.61
2018-11-02T10:39:15.117Z,53.31
2018-11-02T10:41:47.561Z,52.92
2018-11-02T10:44:18.200Z,53.61
2018-11-02T10:46:47.745Z,52.92
2018-11-02T10:49:16.502Z,53.28
2018-11-02T10:51:45.215Z,54.75
2018-11-02T10:54:14.959Z,54.80
2018-11-02T10:56:43.702Z,54.53
2018-11-02T10:59:12.375Z,54.68
2018-11-02T11:01:46.304Z,53.59
2018-11-02T11:04:15.182Z,52.07
2018-11-02T11:06:43.837Z,53.06
2018-11-02T11:09:13.510Z,52.15
2018-11-02T11:11:42.775Z,51.24
2018-11-02T11:14:11.614Z,52.96
2018-11-02T11:16:40.477Z,52.33
2018-11-02T11:19:10.052Z,51.51
2018-11-02T11:21:39.811Z,51.20
2018-11-02T11:24:08.601Z,51.34
2018-11-02T11:26:37.842Z,51.89
2018-11-02T11:29:07.130Z,52.19
2018-11-02T11:31:36.494Z,51.62
2018-11-02T11:34:05.923Z,51.05
2018-11-02T11:36:34.648Z,50.21
2018-11-02T11:39:03.641Z,51.31
2018-11-02T11:41:32.313Z,49.90
2018-11-02T11:44:01.025Z,47.90
2018-11-02T11:46:30.004Z,49.48
2018-11-02T11:48:59.789Z,49.54
2018-11-02T11:51:29.545Z,49.97
2018-11-02T11:53:59.650Z,49.35
2018-11-02T11:56:28.340Z,47.10
2018-11-02T11:58:57.105Z,46.03
2018-11-02T12:01:26.029Z,46.56
2018-11-02T12:03:54.842Z,46.60
2018-11-02T12:06:23.515Z,46.36
2018-11-02T12:08:52.241Z,46.79
2018-11-02T12:11:21.721Z,45.85
2018-11-02T12:13:50.445Z,45.21
2018-11-02T12:16:19.152Z,46.23
2018-11-02T12:18:47.839Z,45.92
2018-11-02T12:21:16.609Z,46.55
2018-11-02T12:23:45.687Z,45.92
2018-11-02T12:26:14.713Z,45.94
2018-11-02T12:28:43.448Z,46.45
2018-11-02T12:31:12.067Z,45.94
2018-11-02T12:33:40.771Z,46.59
2018-11-02T12:36:09.465Z,46.35
2018-11-02T12:38:38.180Z,47.64
2018-11-02T12:41:06.994Z,47.16
2018-11-02T12:43:35.750Z,45.63
2018-11-02T12:46:04.330Z,47.08
2018-11-02T12:48:33.073Z,46.73
2018-11-02T12:51:01.710Z,46.81
2018-11-02T12:53:30.731Z,45.85
2018-11-02T12:56:00.021Z,45.67
2018-11-02T12:58:28.878Z,45.16
2018-11-02T13:00:57.589Z,46.18
2018-11-02T13:03:26.309Z,45.50
2018-11-02T13:05:55.154Z,45.25
2018-11-02T13:08:24.031Z,44.46
2018-11-02T13:10:52.764Z,44.63
2018-11-02T13:13:21.615Z,44.36
2018-11-02T13:15:50.297Z,44.50
2018-11-02T13:18:20.448Z,44.88
2018-11-02T13:20:49.122Z,45.25
2018-11-02T13:23:18.058Z,45.30
2018-11-02T13:25:46.809Z,46.11
2018-11-02T13:28:15.444Z,46.33
2018-11-02T13:30:45.547Z,46.30
2018-11-02T13:33:14.268Z,45.60
2018-11-02T13:35:43.270Z,45.12
2018-11-02T13:38:12.035Z,45.17
2018-11-02T13:40:40.743Z,45.50
2018-11-02T13:43:10.413Z,45.55
2018-11-02T13:45:39.038Z,45.15
2018-11-02T13:48:07.729Z,45.66
2018-11-02T13:50:36.694Z,44.74
2018-11-02T13:53:05.799Z,44.22
2018-11-02T13:55:34.801Z,43.72
2018-11-02T13:58:03.465Z,44.77
2018-11-02T14:00:32.110Z,44.28
2018-11-02T14:03:00.729Z,43.73
2018-11-02T14:05:29.402Z,43.79
2018-11-02T14:07:58.138Z,43.85
2018-11-02T14:10:26.837Z,43.80
2018-11-02T14:12:55.553Z,43.66
2018-11-02T14:15:24.281Z,43.69
2018-11-02T14:17:53.313Z,42.88
2018-11-02T14:20:22.138Z,43.37
2018-11-02T14:22:50.782Z,42.80
2018-11-02T14:25:19.416Z,43.75
2018-11-02T14:27:48.107Z,43.10
2018-11-02T14:30:17.786Z,43.78
2018-11-02T14:32:47.337Z,44.71
2018-11-02T14:35:15.981Z,45.56
2018-11-02T14:37:44.719Z,45.87
2018-11-02T14:40:13.490Z,45.77
2018-11-02T14:42:42.696Z,45.56
2018-11-02T14:45:13.210Z,46.00
2018-11-02T14:47:42.178Z,45.84
2018-11-02T14:50:11.520Z,46.27
2018-11-02T14:52:40.293Z,46.50
2018-11-02T14:55:09.422Z,45.94
2018-11-02T14:57:39.021Z,46.14
2018-11-02T15:00:10.448Z,46.76
2018-11-02T15:02:39.520Z,46.78
2018-11-02T15:05:09.701Z,46.42
2018-11-02T15:07:38.810Z,46.99
2018-11-02T15:10:07.946Z,47.05
2018-11-02T15:12:37.158Z,46.33
2018-11-02T15:15:07.080Z,47.43
2018-11-02T15:17:35.734Z,46.69
2018-11-02T15:20:04.871Z,47.26
2018-11-02T15:22:33.533Z,45.82
2018-11-02T15:25:02.188Z,45.73
2018-11-02T15:27:30.837Z,46.12
2018-11-02T15:29:59.618Z,44.83
2018-11-02T15:32:28.318Z,45.10
2018-11-02T15:34:57.012Z,44.93
2018-11-02T15:37:26.366Z,44.95
2018-11-02T15:39:55.129Z,45.18
2018-11-02T15:42:23.804Z,44.54
2018-11-02T15:44:52.470Z,45.12
2018-11-02T15:47:21.122Z,45.18
2018-11-02T15:49:49.825Z,45.06
2018-11-02T15:52:18.511Z,44.96
2018-11-02T15:54:47.230Z,45.48
2018-11-02T15:57:17.269Z,46.05
2018-11-02T15:59:46.101Z,46.22
2018-11-02T16:02:14.745Z,46.24
2018-11-02T16:04:43.443Z,46.01
2018-11-02T16:07:12.963Z,46.53
2018-11-02T16:09:41.789Z,46.82
2018-11-02T16:12:10.451Z,46.85
2018-11-02T16:14:39.092Z,46.49
2018-11-02T16:17:07.804Z,46.90
2018-11-02T16:19:36.541Z,47.00
2018-11-02T16:22:05.712Z,47.62
2018-11-02T16:24:34.488Z,47.94
2018-11-02T16:27:03.837Z,48.69
2018-11-02T16:29:32.566Z,50.80
2018-11-02T16:32:01.513Z,51.36
2018-11-02T16:34:30.218Z,53.29
2018-11-02T16:36:58.913Z,53.95
2018-11-02T16:39:27.628Z,55.87
2018-11-02T16:41:56.533Z,56.68
2018-11-02T16:44:25.678Z,57.08
2018-11-02T16:46:54.370Z,58.32
2018-11-02T16:49:23.021Z,58.70
2018-11-02T16:51:52.585Z,59.99
2018-11-02T16:54:21.437Z,60.55
2018-11-02T16:56:50.081Z,60.55
2018-11-02T16:59:19.222Z,61.56
2018-11-02T17:01:47.924Z,63.03
2018-11-02T17:04:16.592Z,64.04
2018-11-02T17:06:45.581Z,64.84
2018-11-02T17:09:14.309Z,66.24
2018-11-02T17:11:43.044Z,66.86
2018-11-02T17:14:11.755Z,67.90
2018-11-02T17:16:40.445Z,67.75
2018-11-02T17:19:09.176Z,68.82
2018-11-02T17:21:37.881Z,68.51
2018-11-02T17:24:06.682Z,68.33
2018-11-02T17:26:35.836Z,68.59
2018-11-02T17:29:04.955Z,68.53
2018-11-02T17:31:33.731Z,69.30
2018-11-02T17:34:02.381Z,68.45
2018-11-02T17:36:31.069Z,67.84
2018-11-02T17:38:59.761Z,67.96
2018-11-02T17:41:28.454Z,68.08
2018-11-02T17:43:57.103Z,67.74
2018-11-02T17:46:25.827Z,66.70
2018-11-02T17:48:54.526Z,66.20
2018-11-02T17:51:23.167Z,66.06
2018-11-02T17:53:51.802Z,66.39
2018-11-02T17:56:20.509Z,66.62
2018-11-02T17:58:49.170Z,66.48
2018-11-02T18:01:17.834Z,67.09
2018-11-02T18:03:46.509Z,67.14
2018-11-02T18:06:15.277Z,68.05
2018-11-02T18:08:43.868Z,67.94
2018-11-02T18:11:12.542Z,68.17
2018-11-02T18:13:41.298Z,68.65
2018-11-02T18:16:09.992Z,69.70
2018-11-02T18:18:38.711Z,70.04
2018-11-02T18:21:07.311Z,69.92
2018-11-02T18:23:35.964Z,70.02
2018-11-02T18:26:04.736Z,70.52
2018-11-02T18:28:33.360Z,70.33
2018-11-02T18:31:02.081Z,70.67
2018-11-02T18:33:30.715Z,71.81
2018-11-02T18:36:00.303Z,72.23
2018-11-02T18:38:28.940Z,72.70
2018-11-02T18:40:57.671Z,72.81
2018-11-02T18:43:26.301Z,73.92
2018-11-02T18:45:55.058Z,74.19
2018-11-02T18:48:23.840Z,74.59
2018-11-02T18:50:52.410Z,74.68
2018-11-02T18:53:21.362Z,75.94
2018-11-02T18:55:50.289Z,75.95
2018-11-02T18:58:19.092Z,76.60
2018-11-02T19:00:47.770Z,77.36
2018-11-02T19:03:16.442Z,78.21
2018-11-02T19:05:45.258Z,78.31
2018-11-02T19:08:13.850Z,78.28
2018-11-02T19:10:42.512Z,79.29
2018-11-02T19:13:11.250Z,79.19
2018-11-02T19:15:40.691Z,79.84
2018-11-02T19:18:09.341Z,79.86
2018-11-02T19:20:37.985Z,79.66
2018-11-02T19:23:06.707Z,79.20
2018-11-02T19:25:35.369Z,80.04
2018-11-02T19:28:04.054Z,80.47
2018-11-02T19:30:32.853Z,80.40
2018-11-02T19:33:01.581Z,80.62
2018-11-02T19:35:33.450Z,81.04
2018-11-02T19:38:02.069Z,81.78
2018-11-02T19:40:30.746Z,81.50
2018-11-02T19:42:59.420Z,82.03
2018-11-02T19:45:28.084Z,82.72
2018-11-02T19:48:02.355Z,83.07
2018-11-02T19:50:31.111Z,82.93
2018-11-02T19:52:59.792Z,83.63
2018-11-02T19:55:28.473Z,84.21
2018-11-02T19:57:58.032Z,84.39
2018-11-02T20:00:26.695Z,84.19
2018-11-02T20:02:55.368Z,84.85
2018-11-02T20:05:24.042Z,84.51
2018-11-02T20:07:52.775Z,85.21
2018-11-02T20:10:21.440Z,85.16
2018-11-02T20:12:50.125Z,85.37
2018-11-02T20:15:19.022Z,85.65
2018-11-02T20:17:48.320Z,85.52
2018-11-02T20:20:17.566Z,86.04
2018-11-02T20:22:46.300Z,85.92
2018-11-02T20:25:16.260Z,87.12
2018-11-02T20:27:45.062Z,86.48
2018-11-02T20:30:15.676Z,87.10
2018-11-02T20:32:44.582Z,86.33
2018-11-02T20:35:13.362Z,87.36
2018-11-02T20:37:42.042Z,86.89
2018-11-02T20:40:16.274Z,87.20
2018-11-02T20:42:45.637Z,87.47
2018-11-02T20:45:14.895Z,87.79
2018-11-02T20:47:49.128Z,87.76
2018-11-02T20:50:18.010Z,88.20
2018-11-02T20:52:46.694Z,87.99
2018-11-02T20:55:15.795Z,87.62
2018-11-02T20:57:44.563Z,87.97
2018-11-02T21:00:19.950Z,88.33
2018-11-02T21:02:48.607Z,88.30
2018-11-02T21:05:18.345Z,88.35
2018-11-02T21:07:47.687Z,88.97
2018-11-02T21:10:17.545Z,88.96
2018-11-02T21:12:46.297Z,89.25
2018-11-02T21:15:17.269Z,89.20
2018-11-02T21:17:46.073Z,89.83
2018-11-02T21:20:16.094Z,89.49
2018-11-02T21:22:44.767Z,89.65
2018-11-02T21:25:14.042Z,90.19
2018-11-02T21:27:43.372Z,90.31
2018-11-02T21:30:14.754Z,90.46
2018-11-02T21:32:44.001Z,90.07
2018-11-02T21:35:12.763Z,90.66
2018-11-02T21:37:41.464Z,91.31
2018-11-02T21:40:13.478Z,90.71
2018-11-02T21:42:42.789Z,91.22
2018-11-02T21:45:12.639Z,91.03
2018-11-02T21:47:41.607Z,91.29
2018-11-02T21:50:12.289Z,91.04
2018-11-02T21:52:41.081Z,91.64
2018-11-02T21:55:09.956Z,91.84
2018-11-02T21:57:38.772Z,91.54
2018-11-02T22:00:13.483Z,91.74
2018-11-02T22:02:42.182Z,92.20
2018-11-02T22:05:12.327Z,92.07
2018-11-02T22:07:41.702Z,91.42
2018-11-02T22:10:11.311Z,91.59
2018-11-02T22:12:40.078Z,92.53
2018-11-02T22:15:09.313Z,92.21
2018-11-02T22:17:37.985Z,91.69
2018-11-02T22:20:08.305Z,92.66
2018-11-02T22:22:37.018Z,92.64
2018-11-02T22:25:06.900Z,92.43
2018-11-02T22:27:35.834Z,92.03
2018-11-02T22:30:10.640Z,92.21
2018-11-02T22:32:39.420Z,92.50
2018-11-02T22:35:08.210Z,92.08
2018-11-02T22:37:36.847Z,92.21
2018-11-02T22:40:06.837Z,92.55
2018-11-02T22:42:35.526Z,92.66
2018-11-02T22:45:04.352Z,92.57
2018-11-02T22:47:33.002Z,93.01
2018-11-02T22:50:01.636Z,93.23
2018-11-02T22:52:30.319Z,93.25
2018-11-02T22:54:58.977Z,93.21
2018-11-02T22:57:27.624Z,92.67
2018-11-02T22:59:56.250Z,93.27
2018-11-02T23:02:24.960Z,93.66
2018-11-02T23:04:53.621Z,92.96
2018-11-02T23:07:22.281Z,92.62
2018-11-02T23:09:50.988Z,92.83
2018-11-02T23:12:19.710Z,93.41
2018-11-02T23:14:48.733Z,93.12
2018-11-02T23:17:17.506Z,93.25
2018-11-02T23:19:46.121Z,93.93
2018-11-02T23:22:14.830Z,93.80
2018-11-02T23:24:43.469Z,94.41
2018-11-02T23:27:12.201Z,94.34
2018-11-02T23:29:40.973Z,93.84
2018-11-02T23:32:09.674Z,93.98
2018-11-02T23:34:38.354Z,93.82
2018-11-02T23:37:07.344Z,93.43
2018-11-02T23:39:36.016Z,93.71
2018-11-02T23:42:04.807Z,94.35
2018-11-02T23:44:33.476Z,93.47
2018-11-02T23:47:02.161Z,93.59
2018-11-02T23:49:30.837Z,93.89
2018-11-02T23:51:59.586Z,93.55
2018-11-02T23:54:28.232Z,93.16
2018-11-02T23:56:56.855Z,93.04
2018-11-02T23:59:25.886Z,92.66
